Time,TemperatureF,DewpointF,PressureIn,WindDirection,WindDirectionDegrees,WindSpeedMPH,WindSpeedGustMPH,Humidity,HourlyPrecipIn,Conditions,Clouds,dailyrainin,SoftwareType,DateUTC
2013-06-02 00:01:00,55.5,47.0,30.85,NNW,338,7.8,7.8,73,0.00,,FEW050,0.00,VWS V14.00,2013-06-02 07:01:00,
2013-06-02 00:06:00,55.2,46.7,30.85,NNW,338,7.3,7.3,73,0.00,,FEW050,0.00,VWS V14.00,2013-06-02 07:06:00,
2013-06-02 00:11:00,55.2,46.7,30.85,NNW,338,2.9,2.9,73,0.00,,FEW050,0.00,VWS V14.00,2013-06-02 07:11:00,
2013-06-02 00:15:00,55.0,46.9,30.85,NNW,338,8.0,8.0,74,0.00,,FEW050,0.00,VWS V14.00,2013-06-02 07:15:00,
2013-06-02 00:20:00,54.8,47.0,30.85,NNW,338,4.0,4.0,75,0.00,,FEW050,0.00,VWS V14.00,2013-06-02 07:20:00,
2013-06-02 00:25:00,54.6,46.8,30.85,North,0,3.1,3.1,75,0.00,,FEW050,0.00,VWS V14.00,2013-06-02 07:25:00,
2013-06-02 00:30:00,54.6,46.8,30.85,North,0,7.1,7.1,75,0.00,,FEW050,0.00,VWS V14.00,2013-06-02 07:30:00,
2013-06-02 00:35:00,54.6,46.8,30.85,NNW,338,0.0,0.0,75,0.00,,FEW050,0.00,VWS V14.00,2013-06-02 07:35:00,
2013-06-02 00:40:00,54.6,47.2,30.85,NW,315,0.0,0.0,76,0.00,,FEW050,0.00,VWS V14.00,2013-06-02 07:40:00,
2013-06-02 00:45:00,54.6,47.2,30.85,North,0,0.0,0.0,76,0.00,,FEW050,0.00,VWS V14.00,2013-06-02 07:45:00,
2013-06-02 00:50:00,54.6,47.2,30.85,NW,315,9.1,9.1,76,0.00,,FEW050,0.00,VWS V14.00,2013-06-02 07:50:00,
2013-06-02 00:55:00,54.8,47.4,30.85,NNW,338,2.9,2.9,76,0.00,,FEW050,0.00,VWS V14.00,2013-06-02 07:55:00,
2013-06-02 01:00:00,54.8,47.4,30.85,NNW,338,1.3,1.3,76,0.00,,FEW050,0.00,VWS V14.00,2013-06-02 08:00:00,
2013-06-02 01:05:00,55.0,47.9,30.85,NNW,338,6.2,6.2,77,0.00,,OVC070,0.00,VWS V14.00,2013-06-02 08:05:00,
2013-06-02 01:10:00,55.0,47.9,30.85,NW,315,1.1,1.1,77,0.00,,OVC070,0.00,VWS V14.00,2013-06-02 08:10:00,
2013-06-02 01:15:00,54.8,47.7,30.85,NNW,338,5.5,5.5,77,0.00,,OVC070,0.00,VWS V14.00,2013-06-02 08:15:00,
2013-06-02 01:20:00,54.6,47.5,30.85,NNW,338,4.0,4.0,77,0.00,,OVC070,0.00,VWS V14.00,2013-06-02 08:20:00,
2013-06-02 01:25:00,54.6,47.5,30.85,NW,315,6.9,6.9,77,0.00,,OVC070,0.00,VWS V14.00,2013-06-02 08:25:00,
2013-06-02 01:30:00,54.5,47.5,30.85,North,0,3.3,3.3,77,0.00,,OVC070,0.00,VWS V14.00,2013-06-02 08:30:00,
2013-06-02 01:35:00,54.3,47.6,30.85,NNW,338,5.8,5.8,78,0.00,,OVC070,0.00,VWS V14.00,2013-06-02 08:35:00,
2013-06-02 01:40:00,54.3,47.6,30.84,NW,315,6.2,6.2,78,0.00,,OVC070,0.00,VWS V14.00,2013-06-02 08:40:00,
2013-06-02 01:45:00,54.3,47.9,30.84,NW,315,7.6,7.6,79,0.00,,OVC070,0.00,VWS V14.00,2013-06-02 08:45:00,
2013-06-02 01:50:00,54.3,47.9,30.84,NW,315,8.7,8.7,79,0.00,,OVC070,0.00,VWS V14.00,2013-06-02 08:50:00,
2013-06-02 01:55:00,54.3,47.9,30.85,NW,315,3.3,3.3,79,0.00,,OVC070,0.00,VWS V14.00,2013-06-02 08:55:00,
2013-06-02 02:00:00,54.3,47.9,30.85,NNW,338,6.2,6.2,79,0.00,,OVC070,0.00,VWS V14.00,2013-06-02 09:00:00,
2013-06-02 02:05:00,54.1,48.1,30.85,NW,315,3.5,3.5,80,0.00,,CLR,0.00,VWS V14.00,2013-06-02 09:05:00,
2013-06-02 02:10:00,54.1,48.1,30.84,NW,315,8.7,8.7,80,0.00,,CLR,0.00,VWS V14.00,2013-06-02 09:10:00,
2013-06-02 02:15:00,54.3,48.3,30.84,NW,315,6.4,12.0,80,0.00,,CLR,0.00,VWS V14.00,2013-06-02 09:15:00,
2013-06-02 02:20:00,54.3,48.3,30.84,NW,315,6.9,6.9,80,0.00,,CLR,0.00,VWS V14.00,2013-06-02 09:20:00,
2013-06-02 02:25:00,54.3,48.3,30.84,NW,315,12.7,12.7,80,0.00,,CLR,0.00,VWS V14.00,2013-06-02 09:25:00,
2013-06-02 02:30:00,54.3,48.3,30.84,NW,315,12.5,12.5,80,0.00,,CLR,0.00,VWS V14.00,2013-06-02 09:30:00,
2013-06-02 02:35:00,54.5,48.5,30.84,WNW,292,10.0,10.0,80,0.00,,CLR,0.00,VWS V14.00,2013-06-02 09:35:00,
2013-06-02 02:40:00,54.3,48.3,30.84,NW,315,5.3,5.3,80,0.00,,CLR,0.00,VWS V14.00,2013-06-02 09:40:00,
2013-06-02 02:45:00,54.3,48.3,30.84,WNW,292,3.3,3.3,80,0.00,,CLR,0.00,VWS V14.00,2013-06-02 09:45:00,
2013-06-02 02:50:00,54.3,48.3,30.84,WNW,292,6.0,6.0,80,0.00,,CLR,0.00,VWS V14.00,2013-06-02 09:50:00,
2013-06-02 02:55:00,54.3,48.3,30.84,NW,315,8.2,8.2,80,0.00,,CLR,0.00,VWS V14.00,2013-06-02 09:55:00,
2013-06-02 03:00:00,54.1,48.1,30.84,NW,315,9.1,9.1,80,0.00,,CLR,0.00,VWS V14.00,2013-06-02 10:00:00,
2013-06-02 03:05:00,53.9,47.9,30.83,NW,315,9.1,9.1,80,0.00,,SCT060,0.00,VWS V14.00,2013-06-02 10:05:00,
2013-06-02 03:10:00,53.9,48.2,30.84,NNW,338,4.4,4.4,81,0.00,,SCT060,0.00,VWS V14.00,2013-06-02 10:10:00,
2013-06-02 03:15:00,53.7,48.0,30.84,WNW,292,11.6,11.6,81,0.00,,SCT060,0.00,VWS V14.00,2013-06-02 10:15:00,
2013-06-02 03:20:00,53.7,48.0,30.84,North,0,7.8,7.8,81,0.00,,SCT060,0.00,VWS V14.00,2013-06-02 10:20:00,
2013-06-02 03:25:00,53.7,48.0,30.84,NW,315,7.1,7.1,81,0.00,,SCT060,0.00,VWS V14.00,2013-06-02 10:25:00,
2013-06-02 03:30:00,53.7,48.0,30.84,NNW,338,1.3,1.3,81,0.00,,SCT060,0.00,VWS V14.00,2013-06-02 10:30:00,
2013-06-02 03:35:00,53.6,47.9,30.84,NW,315,3.5,3.5,81,0.00,,SCT060,0.00,VWS V14.00,2013-06-02 10:35:00,
2013-06-02 03:40:00,53.4,48.0,30.84,NNW,338,0.6,0.6,82,0.00,,SCT060,0.00,VWS V14.00,2013-06-02 10:40:00,
2013-06-02 03:45:00,53.4,48.0,30.84,NNW,338,0.0,0.0,82,0.00,,SCT060,0.00,VWS V14.00,2013-06-02 10:45:00,
2013-06-02 03:50:00,53.4,48.0,30.84,NNW,338,8.9,8.9,82,0.00,,SCT060,0.00,VWS V14.00,2013-06-02 10:50:00,
2013-06-02 03:55:00,53.4,48.4,30.84,NNW,338,2.4,2.4,83,0.00,,SCT060,0.00,VWS V14.00,2013-06-02 10:55:00,
2013-06-02 04:00:00,53.4,48.4,30.84,NNW,338,3.8,3.8,83,0.00,,SCT060,0.00,VWS V14.00,2013-06-02 11:00:00,
2013-06-02 04:05:00,53.7,48.7,30.84,NNW,338,8.9,8.9,83,0.00,,FEW060,0.00,VWS V14.00,2013-06-02 11:05:00,
2013-06-02 04:10:00,53.7,48.7,30.84,NW,315,0.0,0.0,83,0.00,,FEW060,0.00,VWS V14.00,2013-06-02 11:10:00,
2013-06-02 04:15:00,53.7,48.3,30.84,NNW,338,5.3,5.3,82,0.00,,FEW060,0.00,VWS V14.00,2013-06-02 11:15:00,
2013-06-02 04:20:00,53.7,48.3,30.84,NNW,338,4.2,4.2,82,0.00,,FEW060,0.00,VWS V14.00,2013-06-02 11:20:00,
2013-06-02 04:25:00,53.7,48.7,30.84,NW,315,6.7,6.7,83,0.00,,FEW060,0.00,VWS V14.00,2013-06-02 11:25:00,
2013-06-02 04:30:00,53.7,48.3,30.84,NW,315,0.0,0.0,82,0.00,,FEW060,0.00,VWS V14.00,2013-06-02 11:30:00,
2013-06-02 04:35:00,53.7,48.3,30.84,NNW,338,1.5,1.5,82,0.00,,FEW060,0.00,VWS V14.00,2013-06-02 11:35:00,
2013-06-02 04:40:00,53.7,48.3,30.85,NW,315,0.0,0.0,82,0.00,,FEW060,0.00,VWS V14.00,2013-06-02 11:40:00,
2013-06-02 04:45:00,53.7,48.3,30.85,NW,315,0.0,0.0,82,0.00,,FEW060,0.00,VWS V14.00,2013-06-02 11:45:00,
2013-06-02 04:50:00,53.9,48.5,30.84,NW,315,0.0,0.0,82,0.00,,FEW060,0.00,VWS V14.00,2013-06-02 11:50:00,
2013-06-02 04:55:00,53.9,48.5,30.84,NW,315,0.0,0.0,82,0.00,,FEW060,0.00,VWS V14.00,2013-06-02 11:55:00,
2013-06-02 05:00:00,54.1,48.7,30.85,NW,315,0.8,0.8,82,0.00,,FEW060,0.00,VWS V14.00,2013-06-02 12:00:00,
2013-06-02 05:05:00,54.1,48.7,30.84,NW,315,0.0,0.0,82,0.00,,FEW060,0.00,VWS V14.00,2013-06-02 12:05:00,
2013-06-02 05:10:00,54.1,48.7,30.85,North,0,0.0,0.0,82,0.00,,FEW060,0.00,VWS V14.00,2013-06-02 12:10:00,
2013-06-02 05:15:00,54.3,48.9,30.85,NNW,338,2.6,2.6,82,0.00,,FEW060,0.00,VWS V14.00,2013-06-02 12:15:00,
2013-06-02 05:20:00,54.3,48.9,30.85,NNW,338,0.0,0.0,82,0.00,,FEW060,0.00,VWS V14.00,2013-06-02 12:20:00,
2013-06-02 05:25:00,54.5,48.8,30.85,NNW,338,5.3,5.3,81,0.00,,FEW060,0.00,VWS V14.00,2013-06-02 12:25:00,
2013-06-02 05:30:00,54.6,49.5,30.85,North,0,5.8,5.8,83,0.00,,FEW060,0.00,VWS V14.00,2013-06-02 12:30:00,
2013-06-02 05:35:00,54.6,49.2,30.85,NNW,338,4.2,4.2,82,0.00,,FEW060,0.00,VWS V14.00,2013-06-02 12:35:00,
2013-06-02 05:40:00,54.6,49.2,30.86,NNW,338,4.6,4.6,82,0.00,,FEW060,0.00,VWS V14.00,2013-06-02 12:40:00,
2013-06-02 05:45:00,54.6,49.2,30.86,NW,315,0.0,0.0,82,0.00,,BKN055,0.00,VWS V14.00,2013-06-02 12:45:00,
2013-06-02 05:50:00,54.6,48.9,30.86,NW,315,0.0,0.0,81,0.00,,BKN055,0.00,VWS V14.00,2013-06-02 12:50:00,
2013-06-02 05:55:00,54.6,48.9,30.86,NNW,338,0.0,0.0,81,0.00,,BKN055,0.00,VWS V14.00,2013-06-02 12:55:00,
2013-06-02 06:00:00,54.8,49.1,30.86,NNW,338,0.0,0.0,81,0.00,,BKN055,0.00,VWS V14.00,2013-06-02 13:00:00,
2013-06-02 06:05:00,55.0,49.3,30.86,NNW,338,0.0,0.0,81,0.00,,BKN055,0.00,VWS V14.00,2013-06-02 13:05:00,
2013-06-02 06:10:00,55.0,49.3,30.86,NNW,338,0.0,0.0,81,0.00,,BKN055,0.00,VWS V14.00,2013-06-02 13:10:00,
2013-06-02 06:15:00,55.0,49.3,30.86,NNW,338,2.6,2.6,81,0.00,,BKN055,0.00,VWS V14.00,2013-06-02 13:15:00,
2013-06-02 06:20:00,55.2,49.5,30.87,NNW,338,6.9,6.9,81,0.00,,BKN055,0.00,VWS V14.00,2013-06-02 13:20:00,
2013-06-02 06:25:00,55.2,49.5,30.86,NNW,338,0.0,0.0,81,0.00,,OVC050,0.00,VWS V14.00,2013-06-02 13:25:00,
2013-06-02 06:30:00,55.4,49.7,30.86,North,0,4.9,4.9,81,0.00,,OVC050,0.00,VWS V14.00,2013-06-02 13:30:00,
2013-06-02 06:35:00,55.2,49.5,30.87,NNW,338,7.1,7.1,81,0.00,,OVC050,0.00,VWS V14.00,2013-06-02 13:35:00,
2013-06-02 06:40:00,55.2,49.5,30.87,North,0,1.7,1.7,81,0.00,,OVC050,0.00,VWS V14.00,2013-06-02 13:40:00,
2013-06-02 06:45:00,55.2,49.5,30.87,NW,315,0.0,0.0,81,0.00,,OVC050,0.00,VWS V14.00,2013-06-02 13:45:00,
2013-06-02 06:50:00,56.1,50.0,30.88,NW,315,8.9,8.9,80,0.00,,OVC050,0.00,VWS V14.00,2013-06-02 13:50:00,
2013-06-02 06:55:00,56.8,50.0,30.88,NW,315,6.4,6.4,78,0.00,,OVC050,0.00,VWS V14.00,2013-06-02 13:55:00,
2013-06-02 07:00:00,56.8,50.0,30.88,North,0,7.3,7.3,78,0.00,,OVC050,0.00,VWS V14.00,2013-06-02 14:00:00,
2013-06-02 07:05:00,56.4,49.6,30.88,NNW,338,9.6,9.6,78,0.00,,BKN028,0.00,VWS V14.00,2013-06-02 14:05:00,
2013-06-02 07:10:00,56.1,49.3,30.88,North,0,8.2,8.2,78,0.00,,BKN028,0.00,VWS V14.00,2013-06-02 14:10:00,
2013-06-02 07:15:00,56.1,49.3,30.88,North,0,0.2,0.2,78,0.00,,BKN028,0.00,VWS V14.00,2013-06-02 14:15:00,
2013-06-02 07:20:00,55.9,49.5,30.88,North,0,2.6,2.6,79,0.00,,BKN028,0.00,VWS V14.00,2013-06-02 14:20:00,
2013-06-02 07:25:00,56.1,49.7,30.88,North,0,0.0,0.0,79,0.00,,BKN028,0.00,VWS V14.00,2013-06-02 14:25:00,
2013-06-02 07:30:00,56.4,49.6,30.88,North,0,0.0,0.0,78,0.00,,BKN028,0.00,VWS V14.00,2013-06-02 14:30:00,
2013-06-02 07:35:00,56.8,50.0,30.88,North,0,0.0,0.0,78,0.00,,BKN028,0.00,VWS V14.00,2013-06-02 14:35:00,
2013-06-02 07:40:00,57.3,50.2,30.88,NNW,338,1.5,1.5,77,0.00,,BKN028,0.00,VWS V14.00,2013-06-02 14:40:00,
2013-06-02 07:45:00,57.3,49.8,30.88,NNW,338,8.7,8.7,76,0.00,,BKN028,0.00,VWS V14.00,2013-06-02 14:45:00,
2013-06-02 07:50:00,58.6,50.7,30.88,NW,315,0.0,0.0,75,0.00,,BKN028,0.00,VWS V14.00,2013-06-02 14:50:00,
2013-06-02 07:55:00,61.1,51.6,30.88,North,0,5.5,5.5,71,0.00,,BKN028,0.00,VWS V14.00,2013-06-02 14:55:00,
2013-06-02 08:00:00,61.1,51.2,30.88,NNE,22,6.4,6.4,70,0.00,,BKN028,0.00,VWS V14.00,2013-06-02 15:00:00,
2013-06-02 08:05:00,60.9,50.7,30.88,NNW,338,12.0,12.0,69,0.00,,SCT028,0.00,VWS V14.00,2013-06-02 15:05:00,
2013-06-02 08:10:00,61.7,51.0,30.88,North,0,7.6,7.6,68,0.00,,SCT028,0.00,VWS V14.00,2013-06-02 15:10:00,
2013-06-02 08:15:00,63.1,51.6,30.88,North,0,9.1,9.1,66,0.00,,SCT028,0.00,VWS V14.00,2013-06-02 15:15:00,
2013-06-02 08:20:00,64.0,51.6,30.88,North,0,8.9,8.9,64,0.00,,SCT028,0.00,VWS V14.00,2013-06-02 15:20:00,
2013-06-02 08:25:00,63.6,51.2,30.88,NNE,22,6.9,6.9,64,0.00,,SCT028,0.00,VWS V14.00,2013-06-02 15:25:00,
2013-06-02 08:30:00,63.3,50.9,30.88,North,0,8.7,8.7,64,0.00,,SCT028,0.00,VWS V14.00,2013-06-02 15:30:00,
2013-06-02 08:35:00,63.1,50.7,30.88,NE,45,2.4,2.4,64,0.00,,SCT028,0.00,VWS V14.00,2013-06-02 15:35:00,
2013-06-02 08:40:00,64.2,50.9,30.88,North,0,9.3,9.3,62,0.00,,SCT028,0.00,VWS V14.00,2013-06-02 15:40:00,
2013-06-02 08:45:00,63.6,50.8,30.88,North,0,6.0,6.0,63,0.00,,BKN028,0.00,VWS V14.00,2013-06-02 15:45:00,
2013-06-02 08:50:00,63.1,50.7,30.88,North,0,10.0,10.0,64,0.00,,BKN028,0.00,VWS V14.00,2013-06-02 15:50:00,
2013-06-02 08:55:00,62.4,50.1,30.88,North,0,12.5,12.5,64,0.00,,BKN028,0.00,VWS V14.00,2013-06-02 15:55:00,
2013-06-02 09:00:00,62.9,50.1,30.88,North,0,9.8,9.8,63,0.00,,BKN028,0.00,VWS V14.00,2013-06-02 16:00:00,
2013-06-02 09:05:00,62.7,49.5,30.88,NNW,338,13.4,13.4,62,0.00,,BKN028,0.00,VWS V14.00,2013-06-02 16:05:00,
2013-06-02 09:10:00,62.9,49.7,30.88,North,0,17.0,17.0,62,0.00,,BKN028,0.00,VWS V14.00,2013-06-02 16:10:00,
2013-06-02 09:15:00,61.1,48.8,30.88,NNW,338,12.9,12.9,64,0.00,,BKN028,0.00,VWS V14.00,2013-06-02 16:15:00,
2013-06-02 09:20:00,61.8,49.5,30.88,North,0,12.0,12.0,64,0.00,,BKN028,0.00,VWS V14.00,2013-06-02 16:20:00,
2013-06-02 09:25:00,62.9,49.3,30.88,North,0,16.3,16.3,61,0.00,,SCT028,0.00,VWS V14.00,2013-06-02 16:25:00,
2013-06-02 09:29:00,62.7,49.1,30.88,North,0,11.8,11.8,61,0.00,,SCT028,0.00,VWS V14.00,2013-06-02 16:29:00,
2013-06-02 09:34:00,62.4,49.2,30.88,North,0,12.0,12.0,62,0.00,,SCT028,0.00,VWS V14.00,2013-06-02 16:34:00,
2013-06-02 09:39:00,62.7,49.5,30.88,North,0,7.6,7.6,62,0.00,,SCT028,0.00,VWS V14.00,2013-06-02 16:39:00,
2013-06-02 09:44:00,62.9,49.7,30.88,North,0,15.8,15.8,62,0.00,,SCT028,0.00,VWS V14.00,2013-06-02 16:44:00,
2013-06-02 09:49:00,62.9,49.3,30.88,North,0,14.9,14.9,61,0.00,,SCT028,0.00,VWS V14.00,2013-06-02 16:49:00,
2013-06-02 09:54:00,63.1,49.5,30.89,NNW,338,10.9,10.9,61,0.00,,SCT028,0.00,VWS V14.00,2013-06-02 16:54:00,
2013-06-02 09:59:00,63.5,49.8,30.88,North,0,15.6,15.6,61,0.00,,SCT028,0.00,VWS V14.00,2013-06-02 16:59:00,
2013-06-02 10:04:00,63.3,49.6,30.88,North,0,8.5,8.5,61,0.00,,CLR,0.00,VWS V14.00,2013-06-02 17:04:00,
2013-06-02 10:09:00,63.5,49.8,30.88,North,0,13.6,13.6,61,0.00,,CLR,0.00,VWS V14.00,2013-06-02 17:09:00,
2013-06-02 10:14:00,63.6,49.9,30.88,North,0,8.9,8.9,61,0.00,,CLR,0.00,VWS V14.00,2013-06-02 17:14:00,
2013-06-02 10:19:00,63.6,49.9,30.88,North,0,10.0,10.0,61,0.00,,CLR,0.00,VWS V14.00,2013-06-02 17:19:00,
2013-06-02 10:24:00,64.0,49.8,30.88,NNE,22,14.9,14.9,60,0.00,,CLR,0.00,VWS V14.00,2013-06-02 17:24:00,
2013-06-02 10:29:00,64.0,49.4,30.88,North,0,14.3,14.3,59,0.00,,CLR,0.00,VWS V14.00,2013-06-02 17:29:00,
2013-06-02 10:34:00,64.0,49.8,30.87,North,0,15.6,15.6,60,0.00,,CLR,0.00,VWS V14.00,2013-06-02 17:34:00,
2013-06-02 10:39:00,64.5,49.9,30.87,North,0,11.6,11.6,59,0.00,,CLR,0.00,VWS V14.00,2013-06-02 17:39:00,
2013-06-02 10:44:00,64.7,50.1,30.87,NNE,22,9.6,9.6,59,0.00,,CLR,0.00,VWS V14.00,2013-06-02 17:44:00,
2013-06-02 10:49:00,64.7,50.1,30.87,North,0,15.4,15.4,59,0.00,,CLR,0.00,VWS V14.00,2013-06-02 17:49:00,
2013-06-02 10:54:00,65.1,50.0,30.87,North,0,13.4,13.4,58,0.00,,CLR,0.00,VWS V14.00,2013-06-02 17:54:00,
2013-06-02 10:59:00,65.4,50.7,30.87,North,0,12.7,12.7,59,0.00,,CLR,0.00,VWS V14.00,2013-06-02 17:59:00,
2013-06-02 11:04:00,65.8,50.6,30.87,North,0,15.4,15.4,58,0.00,,SCT031,0.00,VWS V14.00,2013-06-02 18:04:00,
2013-06-02 11:09:00,66.0,50.3,30.87,North,0,8.7,8.7,57,0.00,,SCT031,0.00,VWS V14.00,2013-06-02 18:09:00,
2013-06-02 11:14:00,66.0,50.3,30.87,North,0,10.5,10.5,57,0.00,,SCT031,0.00,VWS V14.00,2013-06-02 18:14:00,
2013-06-02 11:19:00,66.2,51.0,30.87,North,0,10.5,10.5,58,0.00,,SCT031,0.00,VWS V14.00,2013-06-02 18:19:00,
2013-06-02 11:24:00,66.5,50.8,30.87,NNW,338,7.8,7.8,57,0.00,,SCT031,0.00,VWS V14.00,2013-06-02 18:24:00,
2013-06-02 11:29:00,66.7,51.0,30.87,North,0,12.7,12.7,57,0.00,,SCT031,0.00,VWS V14.00,2013-06-02 18:29:00,
2013-06-02 11:34:00,66.7,50.5,30.87,North,0,8.2,8.2,56,0.00,,SCT031,0.00,VWS V14.00,2013-06-02 18:34:00,
2013-06-02 11:39:00,66.5,49.8,30.87,North,0,17.2,17.2,55,0.00,,SCT031,0.00,VWS V14.00,2013-06-02 18:39:00,
2013-06-02 11:44:00,66.0,50.3,30.87,North,0,17.2,17.2,57,0.00,,SCT031,0.00,VWS V14.00,2013-06-02 18:44:00,
2013-06-02 11:49:00,66.2,50.1,30.87,North,0,15.2,15.2,56,0.00,,SCT031,0.00,VWS V14.00,2013-06-02 18:49:00,
2013-06-02 11:54:00,66.7,50.0,30.87,North,0,12.5,12.5,55,0.00,,SCT031,0.00,VWS V14.00,2013-06-02 18:54:00,
2013-06-02 11:59:00,66.9,50.2,30.87,North,0,16.3,16.3,55,0.00,,SCT031,0.00,VWS V14.00,2013-06-02 18:59:00,
2013-06-02 12:04:00,66.9,50.7,30.87,NNW,338,15.2,15.2,56,0.00,,BKN039,0.00,VWS V14.00,2013-06-02 19:04:00,
2013-06-02 12:09:00,65.8,50.2,30.87,North,0,10.5,10.5,57,0.00,,BKN039,0.00,VWS V14.00,2013-06-02 19:09:00,
2013-06-02 12:14:00,66.0,50.8,30.87,NNE,22,8.7,8.7,58,0.00,,BKN039,0.00,VWS V14.00,2013-06-02 19:14:00,
2013-06-02 12:19:00,67.2,51.0,30.87,NNW,338,16.5,16.5,56,0.00,,BKN039,0.00,VWS V14.00,2013-06-02 19:19:00,
2013-06-02 12:24:00,66.9,50.7,30.86,North,0,9.3,9.3,56,0.00,,BKN039,0.00,VWS V14.00,2013-06-02 19:24:00,
2013-06-02 12:29:00,66.9,49.7,30.87,NNW,338,9.6,9.6,54,0.00,,BKN039,0.00,VWS V14.00,2013-06-02 19:29:00,
2013-06-02 12:34:00,69.4,51.5,30.86,North,0,17.0,17.0,53,0.00,,BKN039,0.00,VWS V14.00,2013-06-02 19:34:00,
2013-06-02 12:39:00,68.9,51.1,30.86,North,0,7.8,7.8,53,0.00,,BKN039,0.00,VWS V14.00,2013-06-02 19:39:00,
2013-06-02 12:44:00,69.0,50.7,30.87,NNW,338,10.7,10.7,52,0.00,,BKN039,0.00,VWS V14.00,2013-06-02 19:44:00,
2013-06-02 12:49:00,67.8,50.1,30.86,North,0,8.5,8.5,53,0.00,,BKN039,0.00,VWS V14.00,2013-06-02 19:49:00,
2013-06-02 12:54:00,66.9,50.7,30.87,North,0,4.0,10.2,56,0.00,,BKN039,0.00,VWS V14.00,2013-06-02 19:54:00,
2013-06-02 12:59:00,67.8,51.5,30.87,NNW,338,12.7,14.7,56,0.00,,BKN039,0.00,VWS V14.00,2013-06-02 19:59:00,
2013-06-02 13:04:00,66.9,50.7,30.87,NNW,338,11.6,11.6,56,0.00,,SCT047,0.00,VWS V14.00,2013-06-02 20:04:00,
2013-06-02 13:09:00,67.6,50.4,30.86,NNW,338,14.7,14.7,54,0.00,,SCT047,0.00,VWS V14.00,2013-06-02 20:09:00,
2013-06-02 13:14:00,68.5,51.2,30.86,North,0,16.3,16.3,54,0.00,,SCT047,0.00,VWS V14.00,2013-06-02 20:14:00,
2013-06-02 13:19:00,68.5,51.7,30.86,North,0,12.0,12.0,55,0.00,,SCT047,0.00,VWS V14.00,2013-06-02 20:19:00,
2013-06-02 13:24:00,70.1,51.7,30.87,North,0,15.2,15.2,52,0.00,,SCT047,0.00,VWS V14.00,2013-06-02 20:24:00,
2013-06-02 13:29:00,69.0,50.7,30.87,North,0,13.6,13.6,52,0.00,,SCT047,0.00,VWS V14.00,2013-06-02 20:29:00,
2013-06-02 13:34:00,67.2,50.5,30.87,North,0,15.4,15.4,55,0.00,,SCT047,0.00,VWS V14.00,2013-06-02 20:34:00,
2013-06-02 13:39:00,65.4,50.2,30.87,North,0,15.2,15.2,58,0.00,,SCT047,0.00,VWS V14.00,2013-06-02 20:39:00,
2013-06-02 13:44:00,65.6,50.9,30.87,North,0,12.3,12.3,59,0.00,,SCT047,0.00,VWS V14.00,2013-06-02 20:44:00,
2013-06-02 13:49:00,66.3,50.6,30.87,NNE,22,7.6,7.6,57,0.00,,SCT047,0.00,VWS V14.00,2013-06-02 20:49:00,
2013-06-02 13:54:00,66.9,51.2,30.87,North,0,14.0,14.0,57,0.00,,SCT047,0.00,VWS V14.00,2013-06-02 20:54:00,
2013-06-02 13:59:00,67.1,50.9,30.86,North,0,12.7,12.7,56,0.00,,SCT047,0.00,VWS V14.00,2013-06-02 20:59:00,
2013-06-02 14:04:00,66.0,50.8,30.86,North,0,13.1,13.1,58,0.00,,OVC055,0.00,VWS V14.00,2013-06-02 21:04:00,
2013-06-02 14:09:00,65.8,51.5,30.86,North,0,12.3,12.3,60,0.00,,OVC055,0.00,VWS V14.00,2013-06-02 21:09:00,
2013-06-02 14:14:00,65.6,51.4,30.86,North,0,12.5,12.5,60,0.00,,OVC055,0.00,VWS V14.00,2013-06-02 21:14:00,
2013-06-02 14:19:00,65.4,49.8,30.86,NNW,338,11.8,11.8,57,0.00,,OVC055,0.00,VWS V14.00,2013-06-02 21:19:00,
2013-06-02 14:24:00,66.3,49.2,30.86,North,0,18.5,18.5,54,0.00,,OVC055,0.00,VWS V14.00,2013-06-02 21:24:00,
2013-06-02 14:29:00,66.3,50.2,30.86,NNE,22,12.9,12.9,56,0.00,,OVC055,0.00,VWS V14.00,2013-06-02 21:29:00,
2013-06-02 14:34:00,65.4,51.2,30.86,NNE,22,9.1,9.1,60,0.00,,OVC055,0.00,VWS V14.00,2013-06-02 21:34:00,
2013-06-02 14:39:00,64.9,51.2,30.86,North,0,12.0,12.0,61,0.00,,OVC055,0.00,VWS V14.00,2013-06-02 21:39:00,
2013-06-02 14:44:00,65.1,50.4,30.86,North,0,12.5,12.5,59,0.00,,OVC055,0.00,VWS V14.00,2013-06-02 21:44:00,
2013-06-02 14:49:00,66.0,50.8,30.86,North,0,16.3,16.3,58,0.00,,OVC055,0.00,VWS V14.00,2013-06-02 21:49:00,
2013-06-02 14:54:00,66.7,50.5,30.86,NNW,338,12.3,12.3,56,0.00,,OVC055,0.00,VWS V14.00,2013-06-02 21:54:00,
2013-06-02 14:59:00,67.1,50.4,30.86,North,0,9.1,9.1,55,0.00,,OVC055,0.00,VWS V14.00,2013-06-02 21:59:00,
2013-06-02 15:04:00,67.2,51.5,30.86,North,0,14.5,14.5,57,0.00,,FEW060,0.00,VWS V14.00,2013-06-02 22:04:00,
2013-06-02 15:09:00,67.6,50.9,30.86,NNW,338,15.4,15.4,55,0.00,,FEW060,0.00,VWS V14.00,2013-06-02 22:09:00,
2013-06-02 15:14:00,68.1,50.3,30.86,NNW,338,14.0,14.0,53,0.00,,FEW060,0.00,VWS V14.00,2013-06-02 22:14:00,
2013-06-02 15:19:00,68.7,51.4,30.86,North,0,15.6,15.6,54,0.00,,FEW060,0.00,VWS V14.00,2013-06-02 22:19:00,
2013-06-02 15:24:00,67.6,51.4,30.86,NNW,338,10.7,10.7,56,0.00,,FEW060,0.00,VWS V14.00,2013-06-02 22:24:00,
2013-06-02 15:29:00,67.8,51.5,30.86,North,0,8.7,8.7,56,0.00,,FEW060,0.00,VWS V14.00,2013-06-02 22:29:00,
2013-06-02 15:34:00,67.8,51.1,30.86,NNW,338,9.3,9.3,55,0.00,,FEW060,0.00,VWS V14.00,2013-06-02 22:34:00,
2013-06-02 15:39:00,67.8,51.1,30.86,WNW,292,6.2,6.2,55,0.00,,FEW060,0.00,VWS V14.00,2013-06-02 22:39:00,
2013-06-02 15:44:00,68.7,51.4,30.85,NNW,338,6.4,6.4,54,0.00,,FEW060,0.00,VWS V14.00,2013-06-02 22:44:00,
2013-06-02 15:49:00,69.0,51.7,30.85,North,0,11.8,11.8,54,0.00,,FEW060,0.00,VWS V14.00,2013-06-02 22:49:00,
2013-06-02 15:54:00,68.1,51.8,30.86,NNE,22,14.0,14.0,56,0.00,,FEW060,0.00,VWS V14.00,2013-06-02 22:54:00,
2013-06-02 15:59:00,67.6,51.4,30.85,NNE,22,9.3,9.3,56,0.00,,FEW060,0.00,VWS V14.00,2013-06-02 22:59:00,
2013-06-02 16:04:00,68.7,51.9,30.85,North,0,10.9,10.9,55,0.00,,SCT070,0.00,VWS V14.00,2013-06-02 23:04:00,
2013-06-02 16:09:00,70.1,52.2,30.85,North,0,9.1,9.1,53,0.00,,SCT070,0.00,VWS V14.00,2013-06-02 23:09:00,
2013-06-02 16:14:00,70.3,51.9,30.85,North,0,18.1,18.1,52,0.00,,SCT070,0.00,VWS V14.00,2013-06-02 23:14:00,
2013-06-02 16:19:00,69.9,51.5,30.85,North,0,11.8,11.8,52,0.00,,SCT070,0.00,VWS V14.00,2013-06-02 23:19:00,
2013-06-02 16:24:00,70.8,51.8,30.85,North,0,12.5,12.5,51,0.00,,SCT070,0.00,VWS V14.00,2013-06-02 23:24:00,
2013-06-02 16:29:00,70.7,51.2,30.85,NW,315,6.9,6.9,50,0.00,,SCT070,0.00,VWS V14.00,2013-06-02 23:29:00,
2013-06-02 16:34:00,71.7,51.0,30.85,NNW,338,13.4,13.4,48,0.00,,SCT070,0.00,VWS V14.00,2013-06-02 23:34:00,
2013-06-02 16:39:00,71.7,51.0,30.85,North,0,12.3,12.3,48,0.00,,SCT070,0.00,VWS V14.00,2013-06-02 23:39:00,
2013-06-02 16:44:00,70.7,51.2,30.85,North,0,10.9,10.9,50,0.00,,SCT070,0.00,VWS V14.00,2013-06-02 23:44:00,
2013-06-02 16:49:00,69.6,50.7,30.85,NW,315,16.1,16.1,51,0.00,,SCT070,0.00,VWS V14.00,2013-06-02 23:49:00,
2013-06-02 16:54:00,70.3,51.3,30.85,NNW,338,14.7,14.7,51,0.00,,SCT070,0.00,VWS V14.00,2013-06-02 23:54:00,
2013-06-02 16:59:00,71.4,51.3,30.85,WNW,292,15.2,15.2,49,0.00,,SCT070,0.00,VWS V14.00,2013-06-02 23:59:00,
2013-06-02 17:04:00,71.7,51.5,30.85,NW,315,6.2,6.2,49,0.00,,SCT060,0.00,VWS V14.00,2013-06-03 00:04:00,
2013-06-02 17:09:00,72.5,51.7,30.85,NW,315,12.7,12.7,48,0.00,,SCT060,0.00,VWS V14.00,2013-06-03 00:09:00,
2013-06-02 17:14:00,73.2,52.4,30.85,NNW,338,6.2,6.2,48,0.00,,SCT060,0.00,VWS V14.00,2013-06-03 00:14:00,
2013-06-02 17:19:00,73.7,52.2,30.85,North,0,11.4,11.4,47,0.00,,SCT060,0.00,VWS V14.00,2013-06-03 00:19:00,
2013-06-02 17:24:00,73.2,51.8,30.85,North,0,14.7,14.7,47,0.00,,SCT060,0.00,VWS V14.00,2013-06-03 00:24:00,
2013-06-02 17:29:00,73.7,52.2,30.84,NW,315,9.8,9.8,47,0.00,,SCT060,0.00,VWS V14.00,2013-06-03 00:29:00,
2013-06-02 17:34:00,74.4,52.9,30.84,NNW,338,8.2,8.2,47,0.00,,SCT060,0.00,VWS V14.00,2013-06-03 00:34:00,
2013-06-02 17:39:00,74.1,52.0,30.84,North,0,8.7,8.7,46,0.00,,SCT060,0.00,VWS V14.00,2013-06-03 00:39:00,
2013-06-02 17:44:00,73.5,52.1,30.84,NNW,338,8.5,8.5,47,0.00,,SCT060,0.00,VWS V14.00,2013-06-03 00:44:00,
2013-06-02 17:49:00,73.5,51.5,30.84,North,0,11.6,11.6,46,0.00,,SCT060,0.00,VWS V14.00,2013-06-03 00:49:00,
2013-06-02 17:54:00,73.0,51.6,30.84,NW,315,12.5,12.5,47,0.00,,SCT060,0.00,VWS V14.00,2013-06-03 00:54:00,
2013-06-02 17:59:00,72.8,52.0,30.84,West,270,8.0,8.0,48,0.00,,SCT060,0.00,VWS V14.00,2013-06-03 00:59:00,
2013-06-02 18:04:00,72.5,51.7,30.84,NNW,338,11.4,11.4,48,0.00,,FEW047,0.00,VWS V14.00,2013-06-03 01:04:00,
2013-06-02 18:09:00,72.3,51.0,30.84,NNW,338,11.4,11.4,47,0.00,,FEW047,0.00,VWS V14.00,2013-06-03 01:09:00,
2013-06-02 18:14:00,71.7,51.5,30.84,NNW,338,10.2,10.2,49,0.00,,FEW047,0.00,VWS V14.00,2013-06-03 01:14:00,
2013-06-02 18:19:00,71.4,51.8,30.84,NNW,338,7.8,7.8,50,0.00,,FEW047,0.00,VWS V14.00,2013-06-03 01:19:00,
2013-06-02 18:24:00,71.4,51.3,30.84,NNW,338,7.1,7.1,49,0.00,,FEW047,0.00,VWS V14.00,2013-06-03 01:24:00,
2013-06-02 18:29:00,71.4,51.8,30.84,North,0,13.4,13.4,50,0.00,,FEW047,0.00,VWS V14.00,2013-06-03 01:29:00,
2013-06-02 18:34:00,71.0,51.5,30.84,NNW,338,8.5,8.5,50,0.00,,FEW047,0.00,VWS V14.00,2013-06-03 01:34:00,
2013-06-02 18:39:00,70.8,51.3,30.84,WNW,292,10.9,10.9,50,0.00,,FEW047,0.00,VWS V14.00,2013-06-03 01:39:00,
2013-06-02 18:44:00,70.5,51.5,30.84,NNW,338,11.1,11.1,51,0.00,,FEW047,0.00,VWS V14.00,2013-06-03 01:44:00,
2013-06-02 18:49:00,70.5,51.5,30.84,NW,315,17.6,17.6,51,0.00,,FEW047,0.00,VWS V14.00,2013-06-03 01:49:00,
2013-06-02 18:54:00,70.3,51.9,30.84,NW,315,7.8,7.8,52,0.00,,FEW047,0.00,VWS V14.00,2013-06-03 01:54:00,
2013-06-02 18:59:00,70.5,52.0,30.84,NW,315,6.2,6.2,52,0.00,,FEW047,0.00,VWS V14.00,2013-06-03 01:59:00,
2013-06-02 19:04:00,70.3,51.9,30.84,NNW,338,14.7,14.7,52,0.00,,CLR,0.00,VWS V14.00,2013-06-03 02:04:00,
2013-06-02 19:09:00,70.1,51.7,30.84,West,270,10.5,10.5,52,0.00,,CLR,0.00,VWS V14.00,2013-06-03 02:09:00,
2013-06-02 19:14:00,69.6,51.7,30.84,NW,315,11.1,11.1,53,0.00,,CLR,0.00,VWS V14.00,2013-06-03 02:14:00,
2013-06-02 19:19:00,69.2,51.4,30.84,WNW,292,11.6,11.6,53,0.00,,CLR,0.00,VWS V14.00,2013-06-03 02:19:00,
2013-06-02 19:24:00,68.7,51.4,30.84,NW,315,18.7,18.7,54,0.00,,CLR,0.00,VWS V14.00,2013-06-03 02:24:00,
2013-06-02 19:29:00,68.3,51.0,30.84,WNW,292,11.8,11.8,54,0.00,,CLR,0.00,VWS V14.00,2013-06-03 02:29:00,
2013-06-02 19:34:00,67.8,50.6,30.84,NNW,338,6.9,6.9,54,0.00,,CLR,0.00,VWS V14.00,2013-06-03 02:34:00,
2013-06-02 19:39:00,67.6,50.9,30.84,NNW,338,12.7,12.7,55,0.00,,CLR,0.00,VWS V14.00,2013-06-03 02:39:00,
2013-06-02 19:44:00,67.2,51.0,30.84,North,0,7.3,7.3,56,0.00,,CLR,0.00,VWS V14.00,2013-06-03 02:44:00,
2013-06-02 19:49:00,66.9,50.7,30.85,NW,315,13.4,13.4,56,0.00,,CLR,0.00,VWS V14.00,2013-06-03 02:49:00,
2013-06-02 19:54:00,66.5,50.8,30.84,NW,315,7.8,7.8,57,0.00,,CLR,0.00,VWS V14.00,2013-06-03 02:54:00,
2013-06-02 19:59:00,66.0,50.3,30.84,North,0,0.0,0.0,57,0.00,,CLR,0.00,VWS V14.00,2013-06-03 02:59:00,
2013-06-02 20:04:00,65.8,50.6,30.85,North,0,7.6,7.6,58,0.00,,FEW048,0.00,VWS V14.00,2013-06-03 03:04:00,
2013-06-02 20:09:00,65.4,50.7,30.85,NNW,338,7.6,7.6,59,0.00,,FEW048,0.00,VWS V14.00,2013-06-03 03:09:00,
2013-06-02 20:14:00,64.5,49.9,30.85,North,0,12.0,12.0,59,0.00,,FEW048,0.00,VWS V14.00,2013-06-03 03:14:00,
2013-06-02 20:19:00,64.0,49.8,30.86,North,0,11.6,11.6,60,0.00,,FEW048,0.00,VWS V14.00,2013-06-03 03:19:00,
2013-06-02 20:24:00,63.3,49.6,30.86,North,0,9.1,9.1,61,0.00,,FEW048,0.00,VWS V14.00,2013-06-03 03:24:00,
2013-06-02 20:29:00,62.7,49.5,30.86,NW,315,8.0,8.0,62,0.00,,FEW048,0.00,VWS V14.00,2013-06-03 03:29:00,
2013-06-02 20:34:00,62.2,49.5,30.86,North,0,3.8,3.8,63,0.00,,FEW048,0.00,VWS V14.00,2013-06-03 03:34:00,
2013-06-02 20:39:00,61.5,48.8,30.87,North,0,8.2,8.2,63,0.00,,FEW048,0.00,VWS V14.00,2013-06-03 03:39:00,
2013-06-02 20:44:00,60.6,48.8,30.87,North,0,8.9,8.9,65,0.00,,FEW048,0.00,VWS V14.00,2013-06-03 03:44:00,
2013-06-02 20:49:00,60.4,49.0,30.87,North,0,6.0,6.0,66,0.00,,FEW048,0.00,VWS V14.00,2013-06-03 03:49:00,
2013-06-02 20:54:00,59.7,48.3,30.87,North,0,2.6,2.6,66,0.00,,FEW048,0.00,VWS V14.00,2013-06-03 03:54:00,
2013-06-02 20:59:00,59.3,48.4,30.87,North,0,6.9,6.9,67,0.00,,FEW048,0.00,VWS V14.00,2013-06-03 03:59:00,
2013-06-02 21:01:00,59.1,48.2,30.87,NNW,338,1.3,1.3,67,0.00,,FEW048,0.00,VWS V14.00,2013-06-03 04:01:00,
2013-06-02 21:06:00,58.8,48.3,30.88,North,0,6.7,6.7,68,0.00,,CLR,0.00,VWS V14.00,2013-06-03 04:06:00,
2013-06-02 21:11:00,58.6,48.1,30.88,North,0,0.0,0.0,68,0.00,,CLR,0.00,VWS V14.00,2013-06-03 04:11:00,
2013-06-02 21:16:00,58.1,48.0,30.89,North,0,3.1,3.1,69,0.00,,CLR,0.00,VWS V14.00,2013-06-03 04:16:00,
2013-06-02 21:21:00,57.9,48.2,30.89,NNE,22,6.7,6.7,70,0.00,,CLR,0.00,VWS V14.00,2013-06-03 04:21:00,
2013-06-02 21:27:00,57.5,48.2,30.89,North,0,6.7,6.7,71,0.00,,CLR,0.00,VWS V14.00,2013-06-03 04:27:00,
2013-06-02 21:32:00,57.3,48.0,30.89,North,0,8.7,8.7,71,0.00,,CLR,0.00,VWS V14.00,2013-06-03 04:32:00,
2013-06-02 21:37:00,57.0,48.1,30.89,NNW,338,7.3,7.3,72,0.00,,CLR,0.00,VWS V14.00,2013-06-03 04:37:00,
2013-06-02 21:42:00,56.8,47.9,30.89,North,0,9.3,9.3,72,0.00,,CLR,0.00,VWS V14.00,2013-06-03 04:42:00,
2013-06-02 21:47:00,56.4,47.5,30.89,NNW,338,8.7,8.7,72,0.00,,CLR,0.00,VWS V14.00,2013-06-03 04:47:00,
2013-06-02 21:52:00,56.3,47.8,30.89,North,0,9.1,9.1,73,0.00,,CLR,0.00,VWS V14.00,2013-06-03 04:52:00,
2013-06-02 21:57:00,56.1,47.6,30.89,North,0,8.2,8.2,73,0.00,,CLR,0.00,VWS V14.00,2013-06-03 04:57:00,
2013-06-02 22:02:00,55.9,47.7,30.89,NNW,338,6.2,6.2,74,0.00,,CLR,0.00,VWS V14.00,2013-06-03 05:02:00,
2013-06-02 22:07:00,55.7,47.5,30.89,NNW,338,1.7,1.7,74,0.00,,CLR,0.00,VWS V14.00,2013-06-03 05:07:00,
2013-06-02 22:12:00,55.2,47.4,30.90,North,0,5.3,5.3,75,0.00,,CLR,0.00,VWS V14.00,2013-06-03 05:12:00,
2013-06-02 22:17:00,55.2,47.4,30.90,NNW,338,2.0,2.0,75,0.00,,CLR,0.00,VWS V14.00,2013-06-03 05:17:00,
2013-06-02 22:22:00,55.0,47.2,30.90,NW,315,7.3,7.3,75,0.00,,CLR,0.00,VWS V14.00,2013-06-03 05:22:00,
2013-06-02 22:27:00,54.8,47.0,30.90,NW,315,7.3,7.3,75,0.00,,CLR,0.00,VWS V14.00,2013-06-03 05:27:00,
2013-06-02 22:32:00,54.6,46.8,30.90,NNW,338,3.1,3.1,75,0.00,,CLR,0.00,VWS V14.00,2013-06-03 05:32:00,
2013-06-02 22:37:00,54.5,46.8,30.90,North,0,5.5,5.5,75,0.00,,CLR,0.00,VWS V14.00,2013-06-03 05:37:00,
2013-06-02 22:42:00,54.3,47.2,30.91,North,0,7.3,7.3,77,0.00,,CLR,0.00,VWS V14.00,2013-06-03 05:42:00,
2013-06-02 22:47:00,54.1,47.1,30.91,NNW,338,7.3,7.3,77,0.00,,CLR,0.00,VWS V14.00,2013-06-03 05:47:00,
2013-06-02 22:52:00,53.9,46.9,30.90,NNW,338,6.4,6.4,77,0.00,,CLR,0.00,VWS V14.00,2013-06-03 05:52:00,
2013-06-02 22:57:00,53.9,47.2,30.90,NNW,338,8.2,8.2,78,0.00,,CLR,0.00,VWS V14.00,2013-06-03 05:57:00,
2013-06-02 23:02:00,53.7,47.0,30.90,NW,315,7.8,7.8,78,0.00,,CLR,0.00,VWS V14.00,2013-06-03 06:02:00,
2013-06-02 23:07:00,53.4,46.7,30.90,NNW,338,6.4,6.4,78,0.00,,CLR,0.00,VWS V14.00,2013-06-03 06:07:00,
2013-06-02 23:12:00,53.4,46.7,30.90,NNW,338,9.3,9.3,78,0.00,,CLR,0.00,VWS V14.00,2013-06-03 06:12:00,
2013-06-02 23:17:00,53.4,46.7,30.90,NNW,338,9.8,9.8,78,0.00,,CLR,0.00,VWS V14.00,2013-06-03 06:17:00,
2013-06-02 23:21:00,53.2,46.5,30.90,NNW,338,8.2,8.2,78,0.00,,CLR,0.00,VWS V14.00,2013-06-03 06:21:00,
2013-06-02 23:27:00,53.2,46.5,30.90,NW,315,7.3,7.3,78,0.00,,CLR,0.00,VWS V14.00,2013-06-03 06:27:00,
2013-06-02 23:32:00,52.8,46.5,30.90,NNW,338,7.1,7.1,79,0.00,,CLR,0.00,VWS V14.00,2013-06-03 06:32:00,
2013-06-02 23:37:00,52.8,46.5,30.90,NNW,338,7.8,7.8,79,0.00,,CLR,0.00,VWS V14.00,2013-06-03 06:37:00,
2013-06-02 23:42:00,52.8,46.5,30.89,NNW,338,8.7,8.7,79,0.00,,CLR,0.00,VWS V14.00,2013-06-03 06:42:00,
2013-06-02 23:47:00,52.8,46.5,30.90,NNW,338,10.2,10.2,79,0.00,,CLR,0.00,VWS V14.00,2013-06-03 06:47:00,
2013-06-02 23:52:00,52.7,46.7,30.89,NNW,338,9.3,9.3,80,0.00,,CLR,0.00,VWS V14.00,2013-06-03 06:52:00,
2013-06-02 23:57:00,52.5,46.5,30.89,NW,315,6.9,6.9,80,0.00,,CLR,0.00,VWS V14.00,2013-06-03 06:57:00,